Fairview, Kansas
Current Conditions -  °F | °C
As of 1:53 PM on Wednesday 17 Dec 2014 (Local Time) from KFNB Reporting Station
Overcast Overcast  
Wind Chill: 28°   Ceiling: 9000
Heat Index: 28°   Visibility: 10mi
Dew Point: 18°   Wind: 3mph
Humidity: 66%   Direction: 10°N
Pressure: 30.27"   Gusts: NA
Location:  39.84°N, 95.73°W
Report Text: KFNB 171953Z AUTO 01003KT 10SM OVC090 M02/M08 A3027 RMK AO2 SLP263 T10221078
Loading
Personal Weather Stations






























Interactive Weather Map New forecast layout! Learn more

10-Day Weather Forecast

Advertisements
Track Severe Weather on mobile